Aviation Digital Data Service (ADDS)

Output produced by TAFs form (2202 UTC 25 July 2016)
found at http://aviationweather.gov/adds/tafs/
 
KFMN 251733Z 2518/2618 12008KT P6SM SCT150 
     FM251900 24008KT P6SM SCT090 SCT150 
     FM260100 08010KT P6SM VCSH BKN090 
     TEMPO 2601/2605 VRB15G25KT 
     FM260500 09008KT P6SM BKN120 
     FM261300 12006KT P6SM SCT150 
     FM261700 VRB06KT P6SM FEW090